Faro, Portugal

12:59 AM WEST on September 24, 2014 (GMT +0100)
Faro | Change Station
CLOSE
Current Station
Airport
Location: Faro,
Elevation: 26 ft
Nearby Weather Stations

Elev 26 ft 37.01 °N, 7.97 °W | Updated 29 minutes ago

Partly Cloudy
Partly Cloudy
68 °F
Feels Like 68 °F
N
6
Wind Variable Wind from WNW

Today
High -- | Low -- °F
--% Chance of Precip.
Yesterday
High -- | Low -- °F
Precip. -- in
7:21 AM 7:26 PM
Waning Crescent, 0% visible
Pressure 29.98 in
Visibility 6.2 miles
Clouds Few 2000 ft
Dew Point 66 °F
Humidity 94%
Rainfall 0.00 in
Snow Depth Not available.
UV 0 out of 12
Pollen Not available.
Air Quality Not available.
Flu Activity Not available.
METAR LPFR 232330Z 30005KT 9999 FEW020 20/19 Q1015

More Conditions Fewer Conditions

Pressure 29.98 in
Visibility 6.2 miles
Clouds Few 2000 ft
Dew Point 66 °F
Humidity 94%
Rainfall 0.00 in
Snow Depth Not available.
UV 0 out of 12
Pollen Not available.
Air Quality Not available.
Flu Activity Not available.
METAR LPFR 232330Z 30005KT 9999 FEW020 20/19 Q1015

More Conditions Fewer Conditions

10-Day Weather Forecast

Almanac

Astronomy

Sep. 24, 2014 Rise Set
Actual Time 7:21 AM WEST 7:26 PM WEST
Civil Twilight 6:55 AM WEST 7:51 PM WEST
Nautical Twilight 6:25 AM WEST 8:22 PM WEST
Astronomical Twilight 5:54 AM WEST 8:52 PM WEST
Moon 7:28 AM WEST (9/24) 7:30 PM WEST (9/24)
Length of Visible Light 12h 56m
Length of Day
12h 04m
Tomorrow will be 2m 22s shorter.
Waning Crescent, 0% of the Moon is Illuminated
Sep 23
Waning Crescent
Sep 24
New
Oct 1
First Quarter
Oct 8
Full
Oct 15
Last Quarter

Yesterday's Extremes

Country Highs Country Lows

Community

WunderPhotos

Upload Photos

1,755,821 photos uploaded!

WunderBlogs® & News

Nearby

Snow Depth

Not available.

Earthquake Activity

City Distance Mag. Time & Date
No recent earthquake activity has been reported nearby.
Minimum magnitude displayed is 2.5.

Coastal Water Temperatures

Place Temperature
No Stations Reporting

Nearby Weather Stations